Tiempo atmosférico en la estación meteorológica de Almonte, Huelva (5 m.)



Fecha
DESCASC
Temp. máxima en grados centígrados (hora)
DESCASC
Temp. mínima en grados centígrados (hora)
DESCASC
Temp. media en grados centígrados
DESCASC
Racha de viento máxima en m/sg (hora)
DESCASC
Velocidad máxima media en intervalos de 10 minutos(hora)
DESCASC
Precipitaciones diarias en mm
DESCASC
Precipitaciones de 00:00 a 06:00 en mm
DESCASC
Precipitaciones de 06:00 a 12:00 en mm
DESCASC
Precipitaciones de 12:00 a 18:00 en mm
DESCASC
Precipitaciones de 18:00 a 24:00 en mm
DESCASC
06-12-2018 22.4 (16:10) 7.5 (03:10) 14.9 5.56 (11:50) 3.33 (11:10) 0.2 0 0.2 0 0
05-12-2018 22.3 (16:20) 8.6 (08:20) 15.4 4.72 (13:30) 2.78 (13:30) 0 0 0 0 0
04-12-2018 21.2 (16:20) 9 (05:40) 15.1 3.61 (04:10) 2.5 (04:00) 0 0 0 0 0
03-12-2018 20.4 (16:30) 7.8 (00:00) 14.1 5.56 (12:00) 3.61 (11:30) 0 0 0 0 0
02-12-2018 19 (16:10) 6.7 (00:00) 12.8 5.83 (11:30) 3.61 (11:30) 0 0 0 0 0
01-12-2018 17.8 (16:20) 5.2 (00:00) 11.5 6.11 (13:40) 3.89 (12:20) 0 0 0 0 0
30-11-2018 17.9 (15:50) 9 (00:00) 13.4 6.94 (13:30) 4.44 (04:10) 2.6 2.4 0.2 0 0
29-11-2018 18.7 (15:40) 5.7 (00:00) 12.2 5.28 (15:50) 3.33 (15:50) 0.2 0 0.2 0 0
28-11-2018 17.8 (16:20) 5.8 (00:00) 11.8 5.83 (11:20) 4.17 (10:40) 0 0 0 0 0
27-11-2018 17.2 (15:20) 5.7 (00:00) 11.5 6.39 (13:20) 4.17 (11:50) 0 0 0 0 0
26-11-2018 17.8 (15:00) 8.1 (08:30) 12.9 10.56 (01:20) 5.28 (00:40) 0.2 0.2 0 0 0
25-11-2018 19.2 (13:30) 15.1 (00:00) 17.2 15.28 (01:50) 10 (01:50) 14.4 4.6 1.2 0 8.6
24-11-2018 18.2 (15:30) 7 (00:00) 12.6 11.67 (23:59) 7.22 (23:59) 0.2 0 0 0.2 0
23-11-2018 18 (15:10) 9.5 (00:00) 13.8 5.56 (14:50) 3.61 (15:10) 0.2 0.2 0 0 0
22-11-2018 14.7 (12:20) 12.3 (00:00) 13.5 5.56 (23:40) 2.78 (09:50) 13.6 0.8 2 7 3.8
21-11-2018 18.8 (14:50) 11.8 (00:00) 15.3 9.17 (00:40) 5 (15:30) 4.6 4.2 0 0.4 0
20-11-2018 18.7 (14:50) 12.7 (00:00) 15.7 13.89 (16:50) 8.33 (16:50) 12.8 12.2 0.2 0.4 0
19-11-2018 18.9 (14:40) 10.2 (00:00) 14.5 8.89 (12:50) 6.39 (12:50) 0.2 0.2 0 0 0
18-11-2018 17.1 (14:40) 12.9 (00:00) 15 10.56 (08:40) 6.94 (08:40) 25.6 0.4 20.2 4.2 0.8
17-11-2018 20.1 (12:20) 10 (00:00) 15.1 6.39 (12:30) 2.78 (15:40) 0 0 0 0 0
16-11-2018 22.1 (16:00) 9.8 (00:00) 16 5.28 (13:00) 2.78 (11:40) 0 0 0 0 0
15-11-2018 22.8 (16:10) 10.2 (00:00) 16.5 4.72 (13:40) 3.33 (14:10) 0 0 0 0 0
14-11-2018 23.2 (16:00) 12.2 (00:00) 17.7 7.78 (13:10) 4.72 (11:40) 0.2 0.2 0 0 0
13-11-2018 19.1 (14:20) 10.9 (00:00) 15 5.56 (11:10) 3.61 (11:20) 0 0 0 0 0
12-11-2018 15.6 (15:50) 12.9 (00:00) 14.3 6.67 (04:10) 3.33 (04:20) 42.6 26.4 14 2 0.2
11-11-2018 22.8 (12:20) 14.3 (00:00) 18.5 8.33 (14:20) 6.11 (13:40) 0 0 0 0 0
10-11-2018 20.1 (15:10) 8.3 (00:00) 14.2 7.22 (15:30) 5.28 (15:10) 0 0 0 0 0
09-11-2018 18.4 (13:20) 6.4 (00:00) 12.4 8.06 (14:10) 5.83 (15:10) 0 0 0 0 0

Gráficas

Temp. máximas Temp. mínimas Temp. medias Precipitaciones Rachas de viento máximas Velocidades máximas media en intervalos de 10 minutos

Datos horarios

Fecha y hora oficial Temperatura (ºC) Velocidad del viento (km/h) Dirección del viento Racha (km/h) Dirección de racha Precipitación (mm) Presión (hPa) Tendencia (hPa) Humedad (%)
2018-12-08 23:00:00 8.4 0 Calma 4 Sur 0 -- -- 87
2018-12-08 22:00:00 10.7 3 Nordeste 6 Norte 0 -- -- 84
2018-12-08 21:00:00 11.7 0 Calma 8 Nordeste 0 -- -- 83
2018-12-08 20:00:00 13.4 4 Nordeste 12 Nordeste 0 -- -- 82
2018-12-08 19:00:00 14.6 4 Nordeste 8 Nordeste 0 -- -- 82
2018-12-08 18:00:00 17 6 Nordeste 15 Nordeste 0 -- -- 74
2018-12-08 17:00:00 19.1 7 Nordeste 13 Nordeste 0 -- -- 66
2018-12-08 16:00:00 19.5 7 Nordeste 14 Norte 0 -- -- 62
2018-12-08 15:00:00 19.1 5 Nordeste 13 Nordeste 0 -- -- 64
2018-12-08 14:00:00 18.3 6 Nordeste 12 Nordeste 0 -- -- 66
2018-12-08 13:00:00 16.5 5 Norte 10 Nordeste 0 -- -- 76
2018-12-08 12:00:00 14.4 3 Norte 12 Nordeste 0 -- -- 81
2018-12-08 11:00:00 12.5 4 Nordeste 12 Nordeste 0 -- -- 88
2018-12-08 10:00:00 9.8 3 Norte 8 Norte 0 -- -- 97
2018-12-08 09:00:00 7.6 3 Norte 9 Nordeste 0 -- -- 97
2018-12-08 08:00:00 7.5 3 Norte 7 Norte 0 -- -- 96
2018-12-08 07:00:00 8.8 6 Norte 14 Norte 0 -- -- 97
2018-12-08 06:00:00 8.1 4 Norte 9 Norte 0 -- -- 97
2018-12-08 05:00:00 7.7 0 Calma 6 Noroeste 0 -- -- 94
2018-12-08 04:00:00 8.8 4 Noroeste 13 Norte 0 -- -- 94
2018-12-08 03:00:00 10 5 Norte 10 Norte 0 -- -- 93
2018-12-08 02:00:00 10.4 4 Norte 16 Norte 0 -- -- 94
2018-12-08 01:00:00 9.9 5 Noroeste 11 Norte 0 -- -- 94
2018-12-08 00:00:00 9.8 3 Norte 8 Norte 0 -- -- 92
2018-12-07 23:00:00 10.2 3 Norte 11 Noroeste 0 -- -- 92
2018-12-07 22:00:00 10.2 4 Oeste 9 Oeste 0 -- -- 90
2018-12-07 21:00:00 12.2 7 Oeste 13 Oeste 0 -- -- 87
2018-12-07 20:00:00 12.7 5 Oeste 12 Oeste 0 -- -- 91
2018-12-07 19:00:00 13.2 6 Oeste 10 Oeste 0 -- -- 87
2018-12-07 18:00:00 16 7 Oeste 17 Oeste 0 -- -- 79
2018-12-07 17:00:00 19 12 Sudoeste 16 Sudoeste 0 -- -- 65
2018-12-07 16:00:00 21 9 Oeste 15 Sur 0 -- -- 56
2018-12-07 15:00:00 20.7 6 Sudoeste 14 Oeste 0 -- -- 62
2018-12-07 14:00:00 18.7 4 Nordeste 12 Nordeste 0 -- -- 64
2018-12-07 13:00:00 17.4 8 Nordeste 13 Nordeste 0 -- -- 69
2018-12-07 12:00:00 16.1 6 Nordeste 14 Nordeste 0 -- -- 78
2018-12-07 11:00:00 13.6 6 Nordeste 13 Nordeste 0 -- -- 87
2018-12-07 10:00:00 10.4 8 Nordeste 12 Nordeste 0 -- -- 98
2018-12-07 09:00:00 7 3 Nordeste 6 Nordeste 0 -- -- 96
2018-12-07 08:00:00 6.6 0 Calma 6 Nordeste 0 -- -- 94
2018-12-07 07:00:00 8 3 Nordeste 7 Nordeste 0 -- -- 95
2018-12-07 06:00:00 8.4 5 Nordeste 8 Nordeste 0 -- -- 92
2018-12-07 05:00:00 9 3 Norte 6 Nordeste 0 -- -- 90
2018-12-07 04:00:00 9.7 3 Norte 8 Noroeste 0 -- -- 89
2018-12-07 03:00:00 9.6 4 Norte 9 Noroeste 0 -- -- 93
2018-12-07 02:00:00 8.8 2 Noroeste 5 Norte 0 -- -- 93
2018-12-07 01:00:00 8.6 0 Calma 5 Norte 0 -- -- 91
2018-12-07 00:00:00 10.9 4 Norte 8 Norte 0 -- -- 87
2018-12-06 23:00:00 11.2 3 Nordeste 10 Norte 0 -- -- 84
2018-12-06 22:00:00 13 6 Norte 11 Norte 0 -- -- 78
2018-12-06 21:00:00 13.5 5 Norte 8 Norte 0 -- -- 80
2018-12-06 20:00:00 13.7 4 Noroeste 6 Noroeste 0 -- -- 77
2018-12-06 19:00:00 16.8 0 Calma 6 Nordeste 0 -- -- 75
2018-12-06 18:00:00 19.4 4 Nordeste 9 Nordeste 0 -- -- 67
2018-12-06 17:00:00 21.8 7 Nordeste 17 Nordeste 0 -- -- 56
2018-12-06 16:00:00 22.3 8 Nordeste 17 Norte 0 -- -- 52
2018-12-06 15:00:00 21.9 11 Nordeste 19 Nordeste 0 -- -- 55
2018-12-06 14:00:00 20.9 8 Norte 17 Nordeste 0 -- -- 58
2018-12-06 13:00:00 19.1 7 Norte 18 Nordeste 0 -- -- 66
2018-12-06 12:00:00 17.1 11 Nordeste 20 Nordeste 0 -- -- 73
2018-12-06 11:00:00 13.9 12 Nordeste 18 Nordeste 0 -- -- 84
2018-12-06 10:00:00 10.7 8 Nordeste 14 Nordeste 0 -- -- 95
2018-12-06 09:00:00 9 6 Nordeste 13 Norte 0.2 -- -- 97
2018-12-06 08:00:00 8.4 8 Nordeste 12 Nordeste 0 -- -- 96
2018-12-06 07:00:00 7.6 2 Nordeste 7 Nordeste 0 -- -- 93
2018-12-06 06:00:00 8.7 3 Norte 6 Norte 0 -- -- 95
2018-12-06 05:00:00 9.1 4 Norte 12 Norte 0 -- -- 94
2018-12-06 04:00:00 10.1 3 Norte 11 Norte 0 -- -- 97
2018-12-06 03:00:00 8 2 Nordeste 5 Nordeste 0 -- -- 94
2018-12-06 02:00:00 9.6 2 Noroeste 6 Nordeste 0 -- -- 96
2018-12-06 01:00:00 10.3 3 Nordeste 9 Nordeste 0 -- -- 96
2018-12-06 00:00:00 11.1 5 Nordeste 9 Norte 0 -- -- 96
2018-12-05 23:00:00 11.1 2 Norte 11 Noroeste 0 -- -- 96
2018-12-05 22:00:00 9.6 0 Calma 2 Noroeste 0 -- -- 93
2018-12-05 21:00:00 11.9 0 Calma 5 Noroeste 0 -- -- 93
2018-12-05 20:00:00 13.2 3 Oeste 6 Sudoeste 0 -- -- 90
2018-12-05 19:00:00 16 3 Oeste 4 Oeste 0 -- -- 83
2018-12-05 18:00:00 19.7 4 Sudoeste 8 Sudoeste 0 -- -- 72
2018-12-05 17:00:00 22 2 Norte 10 Norte 0 -- -- 56
2018-12-05 16:00:00 22.2 5 Nordeste 12 Norte 0 -- -- 55
2018-12-05 15:00:00 21.4 7 Nordeste 16 Norte 0 -- -- 58
2018-12-05 14:00:00 20.2 8 Nordeste 17 Nordeste 0 -- -- 61
2018-12-05 13:00:00 18 9 Nordeste 16 Nordeste 0 -- -- 69
2018-12-05 12:00:00 15.7 9 Nordeste 16 Nordeste 0 -- -- 79
2018-12-05 11:00:00 13.1 9 Nordeste 15 Nordeste 0 -- -- 89
2018-12-05 10:00:00 10.9 8 Nordeste 14 Nordeste 0 -- -- 98
2018-12-05 09:00:00 9.2 7 Norte 10 Nordeste 0 -- -- 99
2018-12-05 08:00:00 8.8 3 Norte 9 Norte 0 -- -- 98
2018-12-05 07:00:00 8.9 5 Nordeste 9 Nordeste 0 -- -- 98
2018-12-05 06:00:00 9.6 6 Nordeste 11 Norte 0 -- -- 98
2018-12-05 05:00:00 9.8 4 Norte 8 Nordeste 0 -- -- 98
2018-12-05 04:00:00 10.1 3 Norte 10 Nordeste 0 -- -- 97
2018-12-05 03:00:00 10.2 4 Norte 7 Norte 0 -- -- 98
2018-12-05 02:00:00 10.4 3 Norte 6 Noroeste 0 -- -- 97
2018-12-05 01:00:00 10.7 5 Norte 7 Norte 0 -- -- 98
2018-12-05 00:00:00 10.5 0 Calma 8 Norte 0 -- -- 96
2018-12-04 23:00:00 10.9 4 Noroeste 6 Noroeste 0 -- -- 97
2018-12-04 22:00:00 9.8 5 Oeste 6 Oeste 0 -- -- 94
2018-12-04 21:00:00 10.9 0 Calma 2 Noroeste 0 -- -- 91
2018-12-04 20:00:00 13 0 Calma 2 Nordeste 0 -- -- 89
2018-12-04 19:00:00 15.9 0 Calma 4 Noroeste 0 -- -- 81
2018-12-04 18:00:00 19.1 2 Oeste 7 Oeste 0 -- -- 75
2018-12-04 17:00:00 21.1 4 Oeste 11 Oeste 0 -- -- 71
2018-12-04 16:00:00 20.5 0 Calma 6 Norte 0 -- -- 74
2018-12-04 15:00:00 19.2 2 Nordeste 10 Este 0 -- -- 78
2018-12-04 14:00:00 16 2 Norte 7 Nordeste 0 -- -- 97
2018-12-04 13:00:00 13.8 4 Nordeste 11 Nordeste 0 -- -- 98
2018-12-04 12:00:00 13.2 7 Nordeste 12 Nordeste 0 -- -- 98
2018-12-04 11:00:00 12.8 4 Nordeste 10 Nordeste 0 -- -- 97
2018-12-04 10:00:00 11.7 5 Nordeste 9 Nordeste 0 -- -- 95
2018-12-04 09:00:00 10.7 3 Nordeste 8 Nordeste 0 -- -- 94
2018-12-04 08:00:00 9.9 4 Norte 10 Nordeste 0 -- -- 95
2018-12-04 07:00:00 9.1 4 Nordeste 9 Nordeste 0 -- -- 96
2018-12-04 06:00:00 9 3 Nordeste 8 Nordeste 0 -- -- 95
2018-12-04 05:00:00 9.6 6 Nordeste 13 Norte 0 -- -- 94
2018-12-04 04:00:00 9.7 9 Nordeste 12 Nordeste 0 -- -- 94
2018-12-04 03:00:00 10.3 6 Nordeste 11 Nordeste 0 -- -- 92
2018-12-04 02:00:00 10.8 6 Norte 9 Nordeste 0 -- -- 89
2018-12-04 01:00:00 11 3 Norte 8 Norte 0 -- -- 87
2018-12-04 00:00:00 11.6 3 Norte 10 Norte 0 -- -- 84
2018-12-03 23:00:00 12.2 3 Norte 8 Nordeste 0 -- -- 83
2018-12-03 22:00:00 12.6 3 Norte 5 Norte 0 -- -- 82
2018-12-03 21:00:00 13.2 3 Norte 8 Nordeste 0 -- -- 87
2018-12-03 20:00:00 13.9 3 Norte 7 Nordeste 0 -- -- 83
2018-12-03 19:00:00 15.8 0 Calma 5 Oeste 0 -- -- 78
2018-12-03 18:00:00 19 0 Calma 5 Nordeste 0 -- -- 65
2018-12-03 17:00:00 20.2 4 Nordeste 10 Nordeste 0 -- -- 59
2018-12-03 16:00:00 20.1 5 Nordeste 12 Norte 0 -- -- 61
2018-12-03 15:00:00 19.1 5 Nordeste 13 Nordeste 0 -- -- 61
2018-12-03 14:00:00 17.8 5 Norte 14 Nordeste 0 -- -- 66
2018-12-03 13:00:00 16.5 6 Nordeste 20 Nordeste 0 -- -- 70
2018-12-03 12:00:00 14.9 13 Nordeste 20 Nordeste 0 -- -- 73
2018-12-03 11:00:00 12.9 10 Nordeste 15 Nordeste 0 -- -- 84
2018-12-03 10:00:00 10.3 8 Nordeste 12 Nordeste 0 -- -- 92
2018-12-03 09:00:00 8.2 3 Norte 9 Norte 0 -- -- 95
2018-12-03 08:00:00 8.1 4 Norte 12 Norte 0 -- -- 95
2018-12-03 07:00:00 8 4 Norte 8 Nordeste 0 -- -- 96
2018-12-03 06:00:00 8 3 Norte 7 Norte 0 -- -- 94
2018-12-03 05:00:00 8.4 3 Norte 5 Nordeste 0 -- -- 93
2018-12-03 04:00:00 9.4 3 Norte 8 Nordeste 0 -- -- 93
2018-12-03 03:00:00 9.4 3 Norte 14 Norte 0 -- -- 92
2018-12-03 02:00:00 9.3 5 Norte 11 Norte 0 -- -- 92
2018-12-03 01:00:00 9 5 Norte 8 Norte 0 -- -- 95
2018-12-03 00:00:00 9.2 2 Norte 7 Norte 0 -- -- 96
2018-12-02 23:00:00 8 3 Norte 6 Norte 0 -- -- 93
2018-12-02 22:00:00 8.9 3 Noroeste 6 Norte 0 -- -- 94
2018-12-02 21:00:00 9.1 0 Calma 3 Noroeste 0 -- -- 88
2018-12-02 20:00:00 12.8 2 Norte 6 Norte 0 -- -- 81
2018-12-02 19:00:00 14.4 5 Noroeste 6 Oeste 0 -- -- 80
2018-12-02 18:00:00 17.3 2 Oeste 7 Norte 0 -- -- 69
2018-12-02 17:00:00 18.5 2 Norte 11 Nordeste 0 -- -- 60
2018-12-02 16:00:00 18.9 7 Nordeste 12 Nordeste 0 -- -- 59
2018-12-02 15:00:00 17.9 7 Nordeste 13 Nordeste 0 -- -- 61
2018-12-02 14:00:00 17.5 6 Norte 16 Nordeste 0 -- -- 62
2018-12-02 13:00:00 16.5 9 Nordeste 20 Nordeste 0 -- -- 68
2018-12-02 12:00:00 14.5 12 Nordeste 21 Nordeste 0 -- -- 75
2018-12-02 11:00:00 12.6 10 Nordeste 18 Nordeste 0 -- -- 81
2018-12-02 10:00:00 9.4 4 Nordeste 11 Nordeste 0 -- -- 94
2018-12-02 09:00:00 7.3 5 Nordeste 9 Nordeste 0 -- -- 95
2018-12-02 08:00:00 7.5 3 Norte 10 Nordeste 0 -- -- 95
2018-12-02 07:00:00 7.7 5 Nordeste 10 Nordeste 0 -- -- 95
2018-12-02 06:00:00 7.2 3 Nordeste 9 Nordeste 0 -- -- 95
2018-12-02 05:00:00 6.8 2 Norte 6 Nordeste 0 -- -- 94
2018-12-02 04:00:00 7.3 0 Calma 3 Nordeste 0 -- -- 92
2018-12-02 03:00:00 8.1 0 Calma 6 Norte 0 -- -- 92
2018-12-02 02:00:00 8.2 2 Norte 4 Norte 0 -- -- 90
2018-12-02 01:00:00 9 3 Norte 8 Norte 0 -- -- 89
2018-12-02 00:00:00 9.4 6 Norte 10 Norte 0 -- -- 89
2018-12-01 23:00:00 8.8 2 Norte 11 Noroeste 0 -- -- 87
2018-12-01 22:00:00 9.6 8 Noroeste 13 Noroeste 0 -- -- 87
2018-12-01 21:00:00 10.8 2 Noroeste 6 Noroeste 0 -- -- 87
2018-12-01 20:00:00 11.7 3 Oeste 5 Noroeste 0 -- -- 81
2018-12-01 19:00:00 13 0 Calma 5 Sudoeste 0 -- -- 78
2018-12-01 18:00:00 15.6 0 Calma 9 Nordeste 0 -- -- 67
2018-12-01 17:00:00 17.1 6 Nordeste 15 Nordeste 0 -- -- 55
2018-12-01 16:00:00 17.7 9 Nordeste 17 Nordeste 0 -- -- 51
2018-12-01 15:00:00 17.4 11 Nordeste 19 Nordeste 0 -- -- 51
2018-12-01 14:00:00 16.9 13 Nordeste 22 Nordeste 0 -- -- 56
2018-12-01 13:00:00 15.7 13 Nordeste 21 Nordeste 0 -- -- 63
2018-12-01 12:00:00 14.1 10 Nordeste 20 Norte 0 -- -- 71
2018-12-01 11:00:00 12 11 Nordeste 21 Nordeste 0 -- -- 80
2018-12-01 10:00:00 8.9 8 Nordeste 14 Nordeste 0 -- -- 95
2018-12-01 09:00:00 5.3 4 Noroeste 6 Nordeste 0 -- -- 96
2018-12-01 08:00:00 6.1 0 Calma 9 Nordeste 0 -- -- 95
2018-12-01 07:00:00 6.8 5 Nordeste 11 Norte 0 -- -- 96
2018-12-01 06:00:00 5.5 4 Nordeste 6 Nordeste 0 -- -- 94
2018-12-01 05:00:00 6.4 0 Calma 9 Norte 0 -- -- 93
2018-12-01 04:00:00 6.9 5 Norte 10 Noroeste 0 -- -- 92
2018-12-01 03:00:00 7.1 2 Norte 6 Nordeste 0 -- -- 91
2018-12-01 02:00:00 7.4 2 Norte 8 Norte 0 -- -- 88
2018-12-01 01:00:00 8.8 5 Norte 14 Norte 0 -- -- 82
2018-12-01 00:00:00 9 6 Norte 12 Noroeste 0 -- -- 83
2018-11-30 23:00:00 9.5 5 Noroeste 12 Noroeste 0 -- -- 85
2018-11-30 22:00:00 10.4 6 Noroeste 13 Noroeste 0 -- -- 90
2018-11-30 21:00:00 11.1 6 Noroeste 9 Oeste 0 -- -- 91
2018-11-30 20:00:00 10.5 5 Oeste 8 Oeste 0 -- -- 87
2018-11-30 19:00:00 12.8 3 Oeste 9 Oeste 0 -- -- 77
2018-11-30 18:00:00 16.6 0 Calma 8 Nordeste 0 -- -- 62
2018-11-30 17:00:00 17.6 5 Nordeste 13 Nordeste 0 -- -- 56
2018-11-30 16:00:00 17.8 6 Nordeste 18 Nordeste 0 -- -- 55
2018-11-30 15:00:00 17.5 8 Nordeste 18 Norte 0 -- -- 56
2018-11-30 14:00:00 17.2 12 Nordeste 25 Nordeste 0 -- -- 58
2018-11-30 13:00:00 16.7 10 Nordeste 19 Nordeste 0 -- -- 66
2018-11-30 12:00:00 15.5 9 Nordeste 19 Nordeste 0 -- -- 78
2018-11-30 11:00:00 14.4 6 Norte 14 Norte 0 -- -- 82
2018-11-30 10:00:00 12.2 4 Norte 15 Norte 0 -- -- 96
2018-11-30 09:00:00 11.1 3 Norte 9 Norte 0 -- -- 96
2018-11-30 08:00:00 12.1 3 Noroeste 9 Oeste 0 -- -- 95
2018-11-30 07:00:00 13.7 4 Oeste 14 Noroeste 0.2 -- -- 96
2018-11-30 06:00:00 15 6 Noroeste 16 Oeste 0 -- -- 96
2018-11-30 05:00:00 15.9 13 Oeste 24 Sudoeste 0.8 -- -- 97
2018-11-30 04:00:00 16.1 15 Sudoeste 23 Sudoeste 1.6 -- -- 97
2018-11-30 03:00:00 16 10 Sudoeste 16 Sudoeste 0 -- -- 93
2018-11-30 02:00:00 15.7 10 Sudoeste 15 Sudoeste 0 -- -- 95
2018-11-30 01:00:00 14.3 8 Sur 12 Sur 0 -- -- 98
2018-11-30 00:00:00 12.8 7 Sur 13 Sur 0 -- -- 96
2018-11-29 23:00:00 12.5 2 Sudeste 4 Sur 0 -- -- 95
2018-11-29 22:00:00 13 0 Calma 9 Sudeste 0 -- -- 93
2018-11-29 21:00:00 14.1 4 Sudeste 9 Sur 0 -- -- 91
2018-11-29 20:00:00 14.2 3 Sudoeste 6 Sudoeste 0 -- -- 91
2018-11-29 19:00:00 14.4 2 Sudoeste 9 Oeste 0 -- -- 87
2018-11-29 18:00:00 15.7 6 Sudoeste 13 Sudoeste 0 -- -- 84
2018-11-29 17:00:00 16.7 10 Sudoeste 16 Sudoeste 0 -- -- 81
2018-11-29 16:00:00 17.7 11 Sudoeste 19 Sur 0 -- -- 77
2018-11-29 15:00:00 16.8 3 Este 8 Este 0 -- -- 78
2018-11-29 14:00:00 13.9 4 Nordeste 9 Nordeste 0 -- -- 82
2018-11-29 13:00:00 12.2 4 Nordeste 11 Nordeste 0 -- -- 86
2018-11-29 12:00:00 11.3 8 Nordeste 14 Nordeste 0 -- -- 89
2018-11-29 11:00:00 9.3 7 Nordeste 16 Nordeste 0 -- -- 98
2018-11-29 10:00:00 7.5 8 Nordeste 12 Nordeste 0 -- -- 98
2018-11-29 09:00:00 6.4 7 Nordeste 10 Nordeste 0 -- -- 98
2018-11-29 08:00:00 6.1 5 Nordeste 9 Nordeste 0.2 -- -- 97
2018-11-29 07:00:00 5.8 6 Nordeste 9 Nordeste 0 -- -- 98
2018-11-29 06:00:00 5.9 4 Nordeste 8 Nordeste 0 -- -- 97
2018-11-29 05:00:00 5.8 5 Nordeste 7 Nordeste 0 -- -- 97
2018-11-29 04:00:00 6.4 5 Nordeste 8 Nordeste 0 -- -- 97
2018-11-29 03:00:00 6.8 4 Norte 9 Nordeste 0 -- -- 97
2018-11-29 02:00:00 6.9 5 Nordeste 8 Nordeste 0 -- -- 96
2018-11-29 01:00:00 7.5 4 Nordeste 8 Nordeste 0 -- -- 97
2018-11-29 00:00:00 7.7 4 Nordeste 9 Nordeste 0 -- -- 96
2018-11-28 23:00:00 7.4 2 Norte 5 Nordeste 0 -- -- 94
2018-11-28 22:00:00 7.2 3 Norte 4 Nordeste 0 -- -- 94
2018-11-28 21:00:00 7.3 0 Calma 3 Noroeste 0 -- -- 90
2018-11-28 14:00:00 16.1 4 Nordeste 13 Nordeste 0 -- -- 67
2018-11-28 13:00:00 14.2 9 Nordeste 15 Este 0 -- -- 75
2018-11-28 12:00:00 12.8 8 Nordeste 21 Nordeste 0 -- -- 83
2018-11-28 11:00:00 10.6 12 Nordeste 20 Nordeste 0 -- -- 90
2018-11-28 10:00:00 8.1 11 Nordeste 18 Nordeste 0 -- -- 98
2018-11-28 09:00:00 6.6 6 Nordeste 12 Nordeste 0 -- -- 98
2018-11-28 08:00:00 6.3 7 Nordeste 14 Nordeste 0 -- -- 98
2018-11-28 07:00:00 5.8 8 Nordeste 11 Nordeste 0 -- -- 97
2018-11-28 06:00:00 6 4 Nordeste 12 Nordeste 0 -- -- 96
2018-11-28 05:00:00 6.7 7 Nordeste 9 Norte 0 -- -- 97
2018-11-28 04:00:00 6.6 5 Nordeste 8 Nordeste 0 -- -- 95
2018-11-28 03:00:00 7.1 3 Nordeste 5 Norte 0 -- -- 92
2018-11-28 02:00:00 7.9 3 Norte 8 Norte 0 -- -- 92
2018-11-28 01:00:00 8.3 4 Norte 10 Norte 0 -- -- 90
2018-11-28 00:00:00 8.8 4 Norte 7 Norte 0 -- -- 88
2018-11-27 23:00:00 9 4 Norte 10 Norte 0 -- -- 89
2018-11-27 22:00:00 9.9 4 Norte 9 Norte 0 -- -- 87
2018-11-27 21:00:00 9.7 3 Norte 5 Norte 0 -- -- 89
2018-11-27 20:00:00 10.8 2 Noroeste 5 Norte 0 -- -- 86
2018-11-27 19:00:00 12.7 4 Nordeste 8 Norte 0 -- -- 80
2018-11-27 18:00:00 14.8 5 Nordeste 12 Nordeste 0 -- -- 71
2018-11-27 17:00:00 16.9 7 Nordeste 17 Nordeste 0 -- -- 64
2018-11-27 16:00:00 17.1 10 Nordeste 19 Nordeste 0 -- -- 62
2018-11-27 15:00:00 16.9 12 Nordeste 23 Nordeste 0 -- -- 60
2018-11-27 14:00:00 16.2 13 Nordeste 23 Nordeste 0 -- -- 64
2018-11-27 13:00:00 15.2 13 Nordeste 22 Nordeste 0 -- -- 71
2018-11-27 12:00:00 13.8 13 Nordeste 22 Nordeste 0 -- -- 77
2018-11-27 11:00:00 11.9 13 Nordeste 21 Nordeste 0 -- -- 85
2018-11-27 10:00:00 9.3 7 Nordeste 14 Nordeste 0 -- -- 94
2018-11-27 09:00:00 7.6 5 Nordeste 12 Norte 0 -- -- 96
2018-11-27 08:00:00 7.5 6 Nordeste 13 Norte 0 -- -- 95
2018-11-27 07:00:00 7.6 6 Nordeste 10 Nordeste 0 -- -- 96
2018-11-27 06:00:00 6.9 7 Nordeste 10 Nordeste 0 -- -- 96
2018-11-27 05:00:00 6.4 0 Calma 8 Norte 0 -- -- 93
2018-11-27 04:00:00 7.1 4 Nordeste 8 Nordeste 0 -- -- 93
2018-11-27 03:00:00 7.8 4 Nordeste 8 Nordeste 0 -- -- 89
2018-11-27 02:00:00 9.4 4 Norte 11 Norte 0 -- -- 83
2018-11-27 01:00:00 8.8 3 Norte 12 Norte 0 -- -- 85
2018-11-27 00:00:00 8.9 5 Noroeste 14 Noroeste 0 -- -- 86
2018-11-26 23:00:00 9.1 4 Noroeste 11 Noroeste 0 -- -- 86
2018-11-26 22:00:00 9.9 5 Noroeste 12 Noroeste 0 -- -- 83
2018-11-26 21:00:00 10.7 6 Noroeste 14 Noroeste 0 -- -- 80
2018-11-26 20:00:00 10.8 7 Noroeste 13 Noroeste 0 -- -- 80
2018-11-26 19:00:00 11.7 9 Noroeste 13 Oeste 0 -- -- 77
2018-11-26 18:00:00 14.3 4 Noroeste 22 Noroeste 0 -- -- 66
2018-11-26 17:00:00 17 11 Noroeste 21 Noroeste 0 -- -- 57
2018-11-26 16:00:00 17.3 8 Noroeste 20 Norte 0 -- -- 57
2018-11-26 15:00:00 17.8 11 Noroeste 26 Noroeste 0 -- -- 55
2018-11-26 14:00:00 16.9 12 Noroeste 27 Noroeste 0 -- -- 58
2018-11-26 13:00:00 16 12 Noroeste 28 Noroeste 0 -- -- 63
2018-11-26 12:00:00 15.3 12 Noroeste 29 Noroeste 0 -- -- 64
2018-11-26 11:00:00 14.3 13 Noroeste 26 Oeste 0 -- -- 72
2018-11-26 10:00:00 11.9 6 Oeste 12 Noroeste 0 -- -- 86
2018-11-26 09:00:00 8.6 7 Oeste 9 Oeste 0 -- -- 94
2018-11-26 08:00:00 8.2 4 Oeste 12 Oeste 0 -- -- 92
2018-11-26 07:00:00 8.4 7 Sudoeste 10 Oeste 0 -- -- 91
2018-11-26 06:00:00 9.4 7 Oeste 14 Oeste 0 -- -- 89
2018-11-26 05:00:00 10.1 8 Sudoeste 18 Oeste 0 -- -- 87
2018-11-26 04:00:00 10.9 13 Oeste 21 Oeste 0 -- -- 86
2018-11-26 03:00:00 11.9 7 Noroeste 24 Noroeste 0 -- -- 83
2018-11-26 02:00:00 13.1 14 Noroeste 38 Noroeste 0 -- -- 83
2018-11-26 01:00:00 15 16 Oeste 35 Oeste 0.2 -- -- 88
2018-11-26 00:00:00 16.1 17 Oeste 40 Noroeste 1.2 -- -- 90
2018-11-25 23:00:00 17.6 27 Oeste 43 Sudoeste 0.2 -- -- 96
2018-11-25 22:00:00 17.3 30 Sudoeste 49 Sudoeste 0 -- -- 97
2018-11-25 21:00:00 16.7 33 Sudoeste 46 Sudoeste 2.2 -- -- 97
2018-11-25 20:00:00 16.1 24 Sudoeste 39 Sudoeste 3.8 -- -- 97
2018-11-25 19:00:00 16.1 23 Sudoeste 36 Sudoeste 1.2 -- -- 94
2018-11-25 18:00:00 17 23 Sudoeste 32 Sudoeste 0 -- -- 87
2018-11-25 17:00:00 17.5 23 Oeste 36 Oeste 0 -- -- 83
2018-11-25 16:00:00 18 25 Oeste 40 Sudoeste 0 -- -- 83
2018-11-25 15:00:00 18.4 24 Oeste 43 Sudoeste 0 -- -- 85
2018-11-25 14:00:00 18.7 23 Sudoeste 39 Sudoeste 0 -- -- 85
2018-11-25 13:00:00 18.2 23 Oeste 38 Sudoeste 0 -- -- 86
2018-11-25 12:00:00 18.6 24 Sudoeste 35 Sudoeste 0 -- -- 90
2018-11-25 11:00:00 16.7 22 Sudoeste 35 Sudoeste 1.2 -- -- 94
2018-11-25 10:00:00 17.1 18 Sudoeste 25 Sudoeste 0 -- -- 90
2018-11-25 09:00:00 16.4 14 Sudoeste 22 Sudoeste 0 -- -- 94
2018-11-25 08:00:00 15.5 11 Sudoeste 21 Sudoeste 0 -- -- 93
2018-11-25 07:00:00 15.8 15 Sudoeste 25 Sur 0 -- -- 94
2018-11-25 06:00:00 15.8 13 Sudoeste 28 Sudoeste 1.8 -- -- 95
2018-11-25 05:00:00 15.9 16 Sudoeste 22 Sudoeste 0 -- -- 94
2018-11-25 04:00:00 15.6 18 Sudoeste 30 Sudoeste 0.2 -- -- 95
2018-11-25 03:00:00 15.2 21 Sudoeste 45 Sudoeste 2.2 -- -- 95
2018-11-25 02:00:00 16 27 Sur 55 Sudoeste 0.4 -- -- 92
2018-11-25 01:00:00 17 28 Sur 40 Sur 0 -- -- 83
2018-11-25 00:00:00 16.9 26 Sur 42 Sudoeste 0 -- -- 79
2018-11-24 23:00:00 17 23 Sur 35 Sur 0 -- -- 79
2018-11-24 22:00:00 16.7 19 Sur 30 Sur 0 -- -- 81
2018-11-24 21:00:00 16.4 19 Sur 32 Sudoeste 0 -- -- 80
2018-11-24 20:00:00 16.2 15 Sudoeste 24 Sudoeste 0 -- -- 79
2018-11-24 19:00:00 15.2 13 Sudoeste 20 Sur 0 -- -- 81
2018-11-24 18:00:00 15.2 2 Sudoeste 10 Noroeste 0 -- -- 88
2018-11-24 17:00:00 16 6 Sur 22 Sur 0.2 -- -- 85
2018-11-24 16:00:00 17.2 15 Sur 24 Sur 0 -- -- 75
2018-11-24 15:00:00 16.9 14 Sur 22 Sur 0 -- -- 75
2018-11-24 14:00:00 17.4 15 Sur 21 Sur 0 -- -- 72
2018-11-24 13:00:00 16.4 5 Sudeste 12 Sudeste 0 -- -- 76
2018-11-24 12:00:00 14.5 6 Este 12 Este 0 -- -- 87
2018-11-24 11:00:00 11.8 4 Nordeste 12 Nordeste 0 -- -- 99
2018-11-24 10:00:00 9.6 6 Nordeste 11 Nordeste 0 -- -- 99
2018-11-24 09:00:00 8 2 Norte 6 Nordeste 0 -- -- 98
2018-11-24 08:00:00 7.4 4 Nordeste 7 Norte 0 -- -- 97
2018-11-24 07:00:00 8 4 Nordeste 6 Nordeste 0 -- -- 97
2018-11-24 06:00:00 7.3 0 Calma 4 Nordeste 0 -- -- 96
2018-11-24 05:00:00 8.7 2 Nordeste 4 Nordeste 0 -- -- 95
2018-11-24 04:00:00 9.7 3 Nordeste 5 Norte 0 -- -- 94
2018-11-24 03:00:00 11.1 2 Norte 5 Nordeste 0 -- -- 94
2018-11-24 02:00:00 11.9 4 Nordeste 7 Norte 0 -- -- 96
2018-11-24 01:00:00 11 0 Calma 4 Sur 0 -- -- 94
2018-11-24 00:00:00 11 0 Calma 8 Oeste 0 -- -- 93
2018-11-23 23:00:00 10.9 0 Calma 8 Norte 0 -- -- 91
2018-11-23 22:00:00 10.5 4 Noroeste 7 Noroeste 0 -- -- 92
2018-11-23 21:00:00 10.1 3 Noroeste 9 Oeste 0 -- -- 88
2018-11-23 20:00:00 10.4 6 Oeste 10 Oeste 0 -- -- 86
2018-11-23 19:00:00 12.2 5 Sudoeste 7 Oeste 0 -- -- 82
2018-11-23 18:00:00 15.5 5 Oeste 15 Sudoeste 0 -- -- 75
2018-11-23 17:00:00 17.4 11 Sudoeste 17 Sudoeste 0 -- -- 66
2018-11-23 16:00:00 17.9 13 Oeste 18 Sudoeste 0 -- -- 67
2018-11-23 15:00:00 17.9 13 Sudoeste 20 Sudoeste 0 -- -- 72
2018-11-23 14:00:00 16.6 0 Calma 7 Nordeste 0 -- -- 71
2018-11-23 13:00:00 16.4 6 Este 11 Nordeste 0 -- -- 76
2018-11-23 12:00:00 14.5 4 Nordeste 9 Nordeste 0 -- -- 85
2018-11-23 11:00:00 11.9 4 Nordeste 5 Nordeste 0 -- -- 97
2018-11-23 10:00:00 10.4 2 Noroeste 8 Noroeste 0 -- -- 97
2018-11-23 09:00:00 10.2 3 Noroeste 6 Noroeste 0 -- -- 97
2018-11-23 08:00:00 10.7 3 Noroeste 5 Noroeste 0 -- -- 97
2018-11-23 07:00:00 10.9 2 Norte 10 Norte 0 -- -- 97
2018-11-23 06:00:00 10.7 0 Calma 6 Oeste 0 -- -- 97
2018-11-23 05:00:00 10.8 3 Noroeste 10 Noroeste 0 -- -- 97
2018-11-23 04:00:00 11.3 3 Norte 10 Noroeste 0 -- -- 97
2018-11-23 03:00:00 11.7 5 Norte 13 Norte 0 -- -- 97
2018-11-23 02:00:00 11.9 2 Norte 9 Norte 0 -- -- 97
2018-11-23 01:00:00 12.2 4 Este 13 Este 0.2 -- -- 98
2018-11-23 00:00:00 12.5 6 Este 20 Este 0.2 -- -- 98
2018-11-22 23:00:00 12.5 6 Este 14 Este 0.6 -- -- 97
2018-11-22 22:00:00 12.6 6 Nordeste 10 Nordeste 1 -- -- 97
2018-11-22 21:00:00 12.5 4 Nordeste 11 Nordeste 0.4 -- -- 97
2018-11-22 20:00:00 12.7 8 Nordeste 15 Nordeste 0.8 -- -- 97
2018-11-22 19:00:00 12.5 8 Nordeste 15 Nordeste 0.8 -- -- 95
2018-11-22 18:00:00 12.9 0 Calma 5 Norte 0.8 -- -- 94
2018-11-22 17:00:00 13.4 2 Norte 3 Este 1.2 -- -- 95
2018-11-22 16:00:00 13.9 0 Calma 6 Este 2 -- -- 95
2018-11-22 15:00:00 14.2 2 Este 7 Sur 0.8 -- -- 95
2018-11-22 14:00:00 14.4 5 Sur 13 Sur 1.4 -- -- 96
2018-11-22 13:00:00 14.5 3 Sudeste 11 Sudeste 0.8 -- -- 95
2018-11-22 12:00:00 14.6 3 Este 10 Sudeste 0.2 -- -- 96
2018-11-22 11:00:00 14.4 3 Sudeste 14 Sur 0 -- -- 97
2018-11-22 10:00:00 13.3 7 Sur 15 Sur 0.4 -- -- 97
2018-11-22 09:00:00 13.5 9 Sur 14 Sur 1.2 -- -- 98
2018-11-22 08:00:00 12.9 3 Este 9 Nordeste 0.2 -- -- 97
2018-11-22 07:00:00 12.7 7 Nordeste 12 Nordeste 0 -- -- 97
2018-11-22 06:00:00 12.6 3 Norte 12 Nordeste 0 -- -- 97
2018-11-22 05:00:00 12.4 3 Nordeste 5 Nordeste 0 -- -- 97
2018-11-22 04:00:00 12.4 2 Norte 5 Norte 0 -- -- 96
2018-11-22 03:00:00 13.1 0 Calma 4 Sudeste 0 -- -- 96
2018-11-22 02:00:00 13.3 2 Nordeste 5 Este 0.2 -- -- 96
2018-11-22 01:00:00 13 3 Norte 5 Norte 0.6 -- -- 93
2018-11-22 00:00:00 12.9 0 Calma 2 Nordeste 0 -- -- 90
2018-11-21 23:00:00 13.1 0 Calma 4 Sudoeste 0 -- -- 87
2018-11-21 22:00:00 13.5 3 Oeste 6 Sudoeste 0 -- -- 85
2018-11-21 21:00:00 13.6 5 Sudoeste 14 Sudoeste 0 -- -- 83
2018-11-21 20:00:00 14 9 Sudoeste 16 Oeste 0 -- -- 83
2018-11-21 19:00:00 14.1 8 Oeste 16 Sudoeste 0 -- -- 84
2018-11-21 18:00:00 16.1 13 Sudoeste 24 Sudoeste 0 -- -- 75
2018-11-21 17:00:00 18.1 17 Sudoeste 25 Sudoeste 0 -- -- 70
2018-11-21 16:00:00 18.5 17 Oeste 27 Sudoeste 0 -- -- 68
2018-11-21 15:00:00 18.7 15 Oeste 23 Sudoeste 0 -- -- 70
2018-11-21 14:00:00 17.7 8 Sudoeste 22 Oeste 0.4 -- -- 77
2018-11-21 13:00:00 17.5 12 Noroeste 24 Oeste 0 -- -- 77
2018-11-21 12:00:00 17.7 5 Sur 13 Sudeste 0 -- -- 79
2018-11-21 11:00:00 15.1 3 Este 6 Este 0 -- -- 98
2018-11-21 10:00:00 12.3 0 Calma 3 Nordeste 0 -- -- 97
2018-11-21 09:00:00 11.8 2 Nordeste 4 Nordeste 0 -- -- 96
2018-11-21 08:00:00 12 0 Calma 4 Nordeste 0 -- -- 96
2018-11-21 07:00:00 12.7 0 Calma 3 Nordeste 0 -- -- 96
2018-11-21 06:00:00 13.2 0 Calma 3 Sur 0 -- -- 95
2018-11-21 05:00:00 13.7 3 Sudoeste 6 Sudoeste 0 -- -- 95
2018-11-21 04:00:00 13.8 0 Calma 9 Sudoeste 0 -- -- 95
2018-11-21 03:00:00 13.6 6 Oeste 18 Oeste 0 -- -- 95
2018-11-21 02:00:00 13.5 5 Oeste 16 Oeste 0 -- -- 95
2018-11-21 01:00:00 14.2 8 Oeste 33 Sudoeste 4.2 -- -- 93
2018-11-21 00:00:00 14.6 8 Oeste 15 Oeste 0 -- -- 85
2018-11-20 23:00:00 15 11 Oeste 18 Oeste 0 -- -- 86
2018-11-20 22:00:00 15.2 13 Oeste 22 Oeste 0 -- -- 85
2018-11-20 21:00:00 15.9 15 Oeste 28 Oeste 0 -- -- 84
2018-11-20 20:00:00 16.2 18 Oeste 34 Oeste 0 -- -- 79
2018-11-20 19:00:00 15.5 18 Oeste 31 Oeste 0 -- -- 82
2018-11-20 18:00:00 15.4 20 Oeste 38 Oeste 0 -- -- 83
2018-11-20 17:00:00 15.3 24 Sudoeste 50 Oeste 0.4 -- -- 85
2018-11-20 16:00:00 17.2 28 Oeste 39 Oeste 0 -- -- 70
2018-11-20 15:00:00 18.2 27 Oeste 38 Oeste 0 -- -- 69
2018-11-20 14:00:00 18 26 Oeste 35 Oeste 0 -- -- 69
2018-11-20 13:00:00 16.7 21 Oeste 35 Oeste 0 -- -- 71
2018-11-20 12:00:00 17.1 15 Oeste 30 Oeste 0 -- -- 78
2018-11-20 11:00:00 14.8 16 Oeste 35 Oeste 0 -- -- 88
2018-11-20 10:00:00 13.8 12 Oeste 35 Noroeste 0 -- -- 96
2018-11-20 09:00:00 13.3 9 Oeste 19 Oeste 0.2 -- -- 98
2018-11-20 08:00:00 13.1 11 Oeste 17 Oeste 0 -- -- 97
2018-11-20 07:00:00 14.1 9 Oeste 15 Oeste 0 -- -- 97
2018-11-20 06:00:00 14.5 10 Oeste 16 Sudoeste 0 -- -- 97
2018-11-20 05:00:00 14.5 8 Sur 20 Este 2 -- -- 97
2018-11-20 04:00:00 13.9 5 Este 27 Sur 2.8 -- -- 96
2018-11-20 03:00:00 14.3 3 Oeste 32 Oeste -- -- -- 95
2018-11-20 02:00:00 15.4 14 Sudoeste 28 Sudoeste 0.4 -- -- 90
2018-11-20 01:00:00 16.1 12 Sudoeste 25 Sudoeste 0 -- -- 85
2018-11-20 00:00:00 14.7 11 Sur 23 Sur 0 -- -- 89
2018-11-19 23:00:00 12.5 3 Sudeste 9 Sur 0 -- -- 95
2018-11-19 22:00:00 11.5 6 Sur 7 Sudeste 0 -- -- 91
2018-11-19 21:00:00 11.6 7 Sudoeste 10 Sudoeste 0 -- -- 86
2018-11-19 20:00:00 13.5 5 Sudoeste 15 Sudoeste 0 -- -- 85
2018-11-19 19:00:00 14.5 10 Sudoeste 17 Sudoeste 0 -- -- 82
2018-11-19 18:00:00 16.2 12 Oeste 27 Sudoeste 0 -- -- 74
2018-11-19 17:00:00 17.2 18 Oeste 27 Oeste 0 -- -- 70
2018-11-19 16:00:00 18.1 18 Oeste 29 Sudoeste 0 -- -- 72
2018-11-19 15:00:00 18.8 18 Oeste 28 Oeste 0 -- -- 70
2018-11-19 14:00:00 18 18 Oeste 31 Noroeste 0 -- -- 71
2018-11-19 13:00:00 17.4 21 Oeste 32 Sudoeste 0 -- -- 78
2018-11-19 12:00:00 15 10 Oeste 26 Oeste 0 -- -- 89
2018-11-19 11:00:00 14.4 10 Oeste 22 Oeste 0 -- -- 94
2018-11-19 10:00:00 13.7 12 Oeste 20 Oeste 0 -- -- 97
2018-11-19 09:00:00 11.9 9 Oeste 15 Oeste 0 -- -- 98
2018-11-19 08:00:00 11.1 6 Oeste 15 Oeste 0 -- -- 98
2018-11-19 07:00:00 10.4 6 Oeste 13 Oeste 0 -- -- 98
2018-11-19 06:00:00 10.5 8 Oeste 15 Oeste 0 -- -- 97
2018-11-19 05:00:00 10.2 7 Noroeste 14 Oeste 0 -- -- 97
2018-11-19 04:00:00 10.7 5 Oeste 11 Noroeste 0.2 -- -- 97
2018-11-19 03:00:00 11 5 Oeste 11 Oeste 0 -- -- 97
2018-11-19 02:00:00 11.8 4 Noroeste 9 Oeste 0 -- -- 97
2018-11-19 01:00:00 12.9 5 Oeste 9 Oeste 0 -- -- 97
2018-11-19 00:00:00 13.1 5 Oeste 9 Oeste 0 -- -- 97
2018-11-18 23:00:00 13 4 Noroeste 9 Noroeste 0 -- -- 97
2018-11-18 22:00:00 12.9 2 Noroeste 9 Norte 0 -- -- 96
2018-11-18 21:00:00 13.1 2 Norte 9 Sudeste 0 -- -- 96
2018-11-18 20:00:00 13.3 4 Este 15 Este 0.2 -- -- 96
2018-11-18 19:00:00 13.5 7 Este 18 Este 0.6 -- -- 95
2018-11-18 18:00:00 13.8 7 Este 23 Este 0.8 -- -- 93
2018-11-18 17:00:00 15.2 7 Sudeste 25 Sur 0 -- -- 84
2018-11-18 16:00:00 15.8 9 Sudeste 25 Sudeste 0 -- -- 86
2018-11-18 15:00:00 16.7 17 Sur 25 Sur 0.2 -- -- 84
2018-11-18 14:00:00 15 12 Sur 37 Sur 3.2 -- -- 96
2018-11-18 13:00:00 15.1 8 Sudeste 24 Sur 0 -- -- 94
2018-11-18 12:00:00 15.2 5 Sudeste 21 Sudeste 0.6 -- -- 97
2018-11-18 11:00:00 15.7 2 Este 10 Sudeste 0 -- -- 97
2018-11-18 10:00:00 14.4 2 Este 20 Sudoeste 7.8 -- -- 97
2018-11-18 09:00:00 13.4 10 Sur 38 Sudoeste 11.4 -- -- 94
2018-11-18 08:00:00 15.6 5 Sudeste 18 Sudeste 0.4 -- -- 91
2018-11-18 07:00:00 16 5 Sudeste 26 Sudeste 0 -- -- 89
2018-11-18 06:00:00 15.4 5 Sudeste 18 Este 0 -- -- 91
2018-11-18 05:00:00 15.5 4 Este 18 Sudeste 0.4 -- -- 90
2018-11-18 04:00:00 16.3 6 Sudeste 15 Sur 0 -- -- 84
2018-11-18 03:00:00 16.1 3 Sudeste 13 Sudeste -- -- -- 86
2018-11-18 02:00:00 16.2 5 Sudeste 16 Sudeste 0 -- -- 86
2018-11-18 01:00:00 16.2 6 Sudeste 17 Sur 0 -- -- 85
2018-11-18 00:00:00 16.3 4 Sudeste 19 Sudeste 0 -- -- 85
2018-11-17 23:00:00 16.8 5 Sudeste 19 Sur 0 -- -- 83
2018-11-17 22:00:00 16.7 8 Sudeste 22 Sudeste 0 -- -- 83
2018-11-17 21:00:00 16.5 6 Sudeste 16 Sudeste 0 -- -- 85
2018-11-17 20:00:00 16.6 4 Sudeste 20 Sur 0 -- -- 85
2018-11-17 19:00:00 16.9 3 Sudeste 16 Sur 0 -- -- 83
2018-11-17 18:00:00 17.7 6 Sudeste 23 Sudeste 0 -- -- 80
2018-11-17 17:00:00 18.4 5 Sudeste 20 Sur 0 -- -- 77
2018-11-17 16:00:00 19.6 8 Sudeste 19 Sur 0 -- -- 72
2018-11-17 15:00:00 20.1 2 Este 13 Este 0 -- -- 72
2018-11-17 14:00:00 19.7 5 Este 15 Este 0 -- -- 74
2018-11-17 13:00:00 19.7 6 Este 23 Sudeste 0 -- -- 76
2018-11-17 12:00:00 18.9 7 Este 19 Este 0 -- -- 81
2018-11-17 11:00:00 15.3 3 Nordeste 13 Nordeste 0 -- -- 98
2018-11-17 10:00:00 13.4 8 Nordeste 12 Nordeste 0 -- -- 99
2018-11-17 09:00:00 11 3 Nordeste 6 Norte 0 -- -- 99
2018-11-17 08:00:00 10.2 4 Nordeste 10 Nordeste 0 -- -- 98
2018-11-17 07:00:00 10.4 4 Nordeste 6 Norte 0 -- -- 98
2018-11-17 06:00:00 10.8 4 Nordeste 8 Nordeste 0 -- -- 98
2018-11-17 05:00:00 10 5 Nordeste 10 Nordeste 0 -- -- 97
2018-11-17 04:00:00 10.3 3 Norte 10 Nordeste 0 -- -- 97
2018-11-17 03:00:00 10.6 4 Nordeste 10 Nordeste 0 -- -- 97
2018-11-17 02:00:00 11.2 0 Calma 6 Nordeste 0 -- -- 96
2018-11-17 01:00:00 10.7 2 Nordeste 6 Nordeste 0 -- -- 96
2018-11-17 00:00:00 10.2 0 Calma 2 Norte 0 -- -- 90
2018-11-16 23:00:00 11.9 0 Calma 5 Norte 0 -- -- 90
2018-11-16 22:00:00 12.7 0 Calma 3 Norte 0 -- -- 92
2018-11-16 21:00:00 13.4 0 Calma 4 Oeste 0 -- -- 88
2018-11-16 20:00:00 14.7 4 Oeste 8 Sudoeste 0 -- -- 86
2018-11-16 19:00:00 16.6 4 Oeste 5 Sudoeste 0 -- -- 76
2018-11-16 18:00:00 20.1 2 Oeste 5 Este 0 -- -- 67
2018-11-16 17:00:00 21.4 0 Calma 11 Este 0 -- -- 59
2018-11-16 16:00:00 22.1 4 Este 17 Este 0 -- -- 57
2018-11-16 15:00:00 20.9 8 Nordeste 19 Nordeste 0 -- -- 62
2018-11-16 14:00:00 20.2 7 Nordeste 17 Nordeste 0 -- -- 64
2018-11-16 13:00:00 19.9 9 Nordeste 19 Nordeste 0 -- -- 67
2018-11-16 12:00:00 17.8 8 Nordeste 14 Nordeste 0 -- -- 79
2018-11-16 11:00:00 15.1 8 Nordeste 12 Nordeste 0 -- -- 98
2018-11-16 10:00:00 11.9 3 Norte 8 Nordeste 0 -- -- 99
2018-11-16 09:00:00 10.8 4 Norte 9 Nordeste 0 -- -- 98
2018-11-16 08:00:00 10.3 3 Norte 5 Nordeste 0 -- -- 98
2018-11-16 07:00:00 9.9 0 Calma 9 Nordeste 0 -- -- 97
2018-11-16 06:00:00 10.7 3 Nordeste 9 Nordeste 0 -- -- 97
2018-11-16 05:00:00 11.1 3 Norte 9 Nordeste 0 -- -- 97
2018-11-16 04:00:00 11.2 2 Norte 5 Norte 0 -- -- 97
2018-11-16 03:00:00 11.9 0 Calma 5 Norte 0 -- -- 96
2018-11-16 02:00:00 10.1 2 Noroeste 4 Norte 0 -- -- 95
2018-11-16 01:00:00 10.9 0 Calma 6 Norte 0 -- -- 95
2018-11-16 00:00:00 11.2 3 Noroeste 5 Norte 0 -- -- 95
2018-11-15 23:00:00 11.7 0 Calma 5 Nordeste 0 -- -- 94
2018-11-15 22:00:00 12.3 0 Calma 4 Oeste 0 -- -- 93
2018-11-15 21:00:00 12.4 3 Sudoeste 8 Sudoeste 0 -- -- 90
2018-11-15 20:00:00 14.5 0 Calma 5 Sudoeste 0 -- -- 88
2018-11-15 19:00:00 16.2 0 Calma 2 Sur 0 -- -- 80
2018-11-15 18:00:00 19.3 0 Calma 10 Sudoeste 0 -- -- 69
2018-11-15 17:00:00 21.8 8 Sudoeste 13 Sudoeste 0 -- -- 61
2018-11-15 16:00:00 22.7 5 Sur 14 Sur 0 -- -- 56
2018-11-15 15:00:00 21.9 8 Sudoeste 16 Sur 0 -- -- 61
2018-11-15 14:00:00 22.1 11 Sudoeste 17 Sudoeste 0 -- -- 62
2018-11-15 13:00:00 21.9 4 Sudeste 15 Sur 0 -- -- 62
2018-11-15 12:00:00 20.3 5 Sudeste 13 Sur 0 -- -- 71
2018-11-15 11:00:00 16.6 6 Nordeste 14 Nordeste 0 -- -- 87
2018-11-15 10:00:00 13.7 7 Nordeste 12 Nordeste 0 -- -- 98
2018-11-15 09:00:00 11.3 4 Nordeste 8 Nordeste 0 -- -- 98
2018-11-15 08:00:00 10.5 0 Calma 6 Nordeste 0 -- -- 97
2018-11-15 07:00:00 10.8 3 Nordeste 8 Norte 0 -- -- 96
2018-11-15 06:00:00 11.5 4 Nordeste 6 Nordeste 0 -- -- 96
2018-11-15 05:00:00 11.2 0 Calma 7 Nordeste 0 -- -- 96
2018-11-15 04:00:00 11.5 5 Nordeste 8 Norte 0 -- -- 96
2018-11-15 03:00:00 10.2 0 Calma 5 Nordeste 0 -- -- 94
2018-11-15 02:00:00 11.3 0 Calma 5 Noroeste 0 -- -- 93
2018-11-15 01:00:00 12.7 2 Nordeste 8 Norte 0 -- -- 93
2018-11-15 00:00:00 12.9 4 Nordeste 8 Nordeste 0 -- -- 93
2018-11-14 23:00:00 13.6 2 Nordeste 6 Norte 0 -- -- 92
2018-11-14 22:00:00 14.4 3 Nordeste 5 Nordeste 0 -- -- 90
2018-11-14 21:00:00 15 0 Calma 3 Noroeste 0 -- -- 85
2018-11-14 20:00:00 16.7 0 Calma 4 Sur 0 -- -- 82
2018-11-14 19:00:00 18.3 0 Calma 3 Sur 0 -- -- 76
2018-11-14 18:00:00 20.8 0 Calma 6 Sudeste 0 -- -- 69
2018-11-14 17:00:00 22.4 2 Este 19 Este 0 -- -- 61
2018-11-14 16:00:00 23.2 6 Este 19 Este 0 -- -- 56
2018-11-14 15:00:00 22.9 7 Este 21 Nordeste 0 -- -- 59
2018-11-14 14:00:00 21.9 9 Nordeste 28 Nordeste 0 -- -- 64
2018-11-14 13:00:00 20.5 10 Nordeste 24 Nordeste 0 -- -- 71
2018-11-14 12:00:00 18.9 14 Nordeste 26 Nordeste 0 -- -- 76
2018-11-14 11:00:00 17.3 13 Nordeste 22 Nordeste 0 -- -- 83
2018-11-14 10:00:00 14.6 8 Nordeste 14 Nordeste 0 -- -- 96
2018-11-14 09:00:00 12.6 3 Norte 11 Norte 0 -- -- 97
2018-11-14 08:00:00 12.5 3 Norte 11 Nordeste 0 -- -- 96
2018-11-14 07:00:00 13.1 7 Nordeste 13 Nordeste 0 -- -- 97
2018-11-14 06:00:00 13 5 Norte 9 Nordeste 0.2 -- -- 96
2018-11-14 05:00:00 12.5 0 Calma 11 Nordeste 0 -- -- 96
2018-11-14 04:00:00 12.9 2 Norte 8 Nordeste 0 -- -- 97
2018-11-14 03:00:00 12.7 3 Norte 8 Nordeste 0 -- -- 97
2018-11-14 02:00:00 12.5 0 Calma 7 Norte 0 -- -- 96
2018-11-14 01:00:00 12.5 4 Norte 10 Nordeste 0 -- -- 96
2018-11-14 00:00:00 12.3 0 Calma 4 Nordeste 0 -- -- 92
2018-11-13 23:00:00 13.5 0 Calma 6 Noroeste 0 -- -- 91
2018-11-13 22:00:00 13.9 4 Noroeste 8 Noroeste 0 -- -- 88
2018-11-13 21:00:00 14.7 5 Noroeste 7 Noroeste 0 -- -- 85
2018-11-13 20:00:00 15.2 3 Noroeste 6 Noroeste 0 -- -- 85
2018-11-13 19:00:00 16.4 0 Calma 4 Noroeste 0 -- -- 85
2018-11-13 18:00:00 17.8 0 Calma 0 Calma 0 -- -- 84
2018-11-13 17:00:00 18.3 0 Calma 6 Nordeste 0 -- -- 78
2018-11-13 16:00:00 18.5 4 Nordeste 8 Nordeste 0 -- -- 74
2018-11-13 15:00:00 18.4 3 Nordeste 9 Nordeste 0 -- -- 76
2018-11-13 14:00:00 18.5 5 Norte 12 Nordeste 0 -- -- 76
2018-11-13 13:00:00 17.3 8 Nordeste 16 Este 0 -- -- 82
2018-11-13 12:00:00 15.9 11 Nordeste 20 Nordeste 0 -- -- 89
2018-11-13 11:00:00 15.7 11 Nordeste 19 Nordeste 0 -- -- 95
2018-11-13 10:00:00 12.8 9 Nordeste 15 Nordeste 0 -- -- 99
2018-11-13 09:00:00 11.4 5 Nordeste 11 Norte 0 -- -- 98
2018-11-13 08:00:00 11.4 5 Norte 13 Norte 0 -- -- 98
2018-11-13 07:00:00 10.9 5 Noroeste 15 Norte 0 -- -- 98
2018-11-13 06:00:00 11.1 5 Noroeste 10 Norte 0 -- -- 98
2018-11-13 05:00:00 11.3 3 Norte 8 Nordeste 0 -- -- 98
2018-11-13 04:00:00 11.8 3 Nordeste 8 Noroeste 0 -- -- 97
2018-11-13 03:00:00 11.9 2 Norte 5 Noroeste 0 -- -- 98
2018-11-13 02:00:00 12.4 2 Noroeste 6 Noroeste 0 -- -- 97
2018-11-13 01:00:00 13 0 Calma 4 Oeste 0 -- -- 98
2018-11-13 00:00:00 13.3 2 Noroeste 5 Noroeste 0 -- -- 98
2018-11-12 23:00:00 13.2 0 Calma 6 Nordeste 0 -- -- 97
2018-11-12 22:00:00 13.2 0 Calma 4 Sudeste 0 -- -- 97
2018-11-12 21:00:00 13.2 0 Calma 4 Este 0 -- -- 96
2018-11-12 20:00:00 13.9 0 Calma 10 Norte 0 -- -- 95
2018-11-12 19:00:00 14.4 0 Calma 6 Norte 0.2 -- -- 95
2018-11-12 18:00:00 15 4 Noroeste 13 Oeste 0.2 -- -- 94
2018-11-12 17:00:00 15.4 6 Oeste 12 Oeste 0 -- -- 94
2018-11-12 16:00:00 15.6 5 Oeste 9 Oeste 0.2 -- -- 94
2018-11-12 15:00:00 15.3 0 Calma 14 Oeste 0.2 -- -- 97
2018-11-12 14:00:00 14.8 3 Sudoeste 11 Sudeste 0.8 -- -- 98
2018-11-12 13:00:00 14.5 6 Este 17 Este 0.6 -- -- 98
2018-11-12 12:00:00 15 4 Sudeste 11 Sur 1.6 -- -- 98
2018-11-12 11:00:00 14.9 8 Sur 12 Sur 2 -- -- 98
2018-11-12 10:00:00 14.8 2 Sudeste 13 Este 2.6 -- -- 98
2018-11-12 09:00:00 14.4 3 Este 6 Nordeste 2.2 -- -- 98
2018-11-12 08:00:00 14.4 2 Este 11 Sudeste 1.6 -- -- 98
2018-11-12 07:00:00 14.6 7 Sur 11 Sur 4 -- -- 98
2018-11-12 06:00:00 14.7 4 Este 10 Este 1.4 -- -- 98
2018-11-12 05:00:00 14.5 4 Sudeste 24 Sur 5.2 -- -- 98
2018-11-12 04:00:00 14.7 3 Sudeste 10 Este 5.4 -- -- 98
2018-11-12 03:00:00 14.5 3 Sudeste 8 Este 8.2 -- -- 97
2018-11-12 02:00:00 14.2 4 Nordeste 19 Noroeste 6.2 -- -- 96
2018-11-12 01:00:00 15.3 0 Calma 5 Sudeste 0 -- -- 95
2018-11-12 00:00:00 15 4 Sudeste 10 Sudeste 0 -- -- 96
2018-11-11 23:00:00 14.3 3 Sudeste 16 Sur 0 -- -- 94
2018-11-11 22:00:00 15 9 Sur 18 Sur 0 -- -- 93
2018-11-11 21:00:00 14.6 9 Sudoeste 14 Sudoeste 0 -- -- 95
2018-11-11 20:00:00 14.9 8 Sudoeste 13 Sur 0 -- -- 92
2018-11-11 19:00:00 16 9 Sudoeste 20 Sudoeste 0 -- -- 89
2018-11-11 18:00:00 18.2 15 Sudoeste 28 Sudoeste 0 -- -- 81
2018-11-11 17:00:00 20.2 20 Sudoeste 28 Sudoeste 0 -- -- 73
2018-11-11 16:00:00 21.2 19 Sudoeste 28 Sudoeste 0 -- -- 72
2018-11-11 15:00:00 21.7 19 Sudoeste 30 Sudoeste 0 -- -- 70
2018-11-11 14:00:00 22.4 20 Sudoeste 28 Sudoeste 0 -- -- 66
2018-11-11 13:00:00 21.8 18 Sur 27 Sur 0 -- -- 70
2018-11-11 12:00:00 22.7 17 Sudoeste 23 Sudoeste 0 -- -- 65
2018-11-11 11:00:00 21.4 14 Sur 20 Sur 0 -- -- 70
2018-11-11 10:00:00 17.8 7 Sudeste 14 Sudeste 0 -- -- 92
2018-11-11 09:00:00 16.1 4 Sudeste 8 Sudoeste 0 -- -- 97
2018-11-11 08:00:00 14.9 2 Sudeste 6 Sudeste 0 -- -- 96
2018-11-11 07:00:00 14.8 3 Sudeste 9 Sur 0 -- -- 95
2018-11-11 06:00:00 15.7 7 Sur 9 Sudoeste 0 -- -- 95
2018-11-11 05:00:00 15.6 5 Sudoeste 8 Sudoeste 0 -- -- 93
2018-11-11 04:00:00 16.8 5 Sudoeste 19 Sudoeste 0 -- -- 92
2018-11-11 03:00:00 17.3 6 Sudoeste 17 Sudoeste 0 -- -- 92
2018-11-11 02:00:00 17.3 10 Sudoeste 15 Sudoeste 0 -- -- 91
2018-11-11 01:00:00 17.4 10 Sudoeste 15 Sudoeste 0 -- -- 90
2018-11-11 00:00:00 17.4 9 Sudoeste 15 Sudoeste 0 -- -- 90
2018-11-10 23:00:00 17.2 10 Sudoeste 14 Sudoeste 0 -- -- 91
2018-11-10 22:00:00 17.1 10 Sudoeste 18 Sur 0 -- -- 90
2018-11-10 21:00:00 17.6 14 Sudoeste 25 Sudoeste 0 -- -- 87
2018-11-10 20:00:00 17.5 12 Sudoeste 18 Sudoeste 0 -- -- 87
2018-11-10 19:00:00 17.5 12 Sudoeste 18 Sudoeste 0 -- -- 87
2018-11-10 18:00:00 18.1 13 Sudoeste 22 Sudoeste 0 -- -- 83
2018-11-10 17:00:00 18.5 14 Sudoeste 21 Sudoeste 0 -- -- 82
2018-11-10 16:00:00 18.9 13 Sudoeste 26 Oeste 0 -- -- 79
2018-11-10 15:00:00 19.9 15 Sudoeste 22 Oeste 0 -- -- 76
2018-11-10 14:00:00 19.2 12 Sur 17 Sur 0 -- -- 80
2018-11-10 13:00:00 17.1 9 Sur 14 Sur 0 -- -- 89
2018-11-10 12:00:00 16.1 2 Sudeste 9 Este 0 -- -- 93
2018-11-10 11:00:00 14.4 2 Este 6 Nordeste 0 -- -- 98
2018-11-10 10:00:00 13 3 Nordeste 5 Sur 0 -- -- 98
2018-11-10 09:00:00 12.3 0 Calma 9 Sudeste 0 -- -- 98
2018-11-10 08:00:00 11.3 0 Calma 9 Sudeste 0 -- -- 98
2018-11-10 07:00:00 10.2 0 Calma 6 Sur 0 -- -- 98
2018-11-10 06:00:00 8.9 2 Este 4 Nordeste 0 -- -- 98
2018-11-10 05:00:00 8.6 0 Calma 6 Nordeste 0 -- -- 97
2018-11-10 04:00:00 8.4 5 Nordeste 7 Nordeste 0 -- -- 96
2018-11-10 03:00:00 8.5 0 Calma 2 Sur 0 -- -- 95
2018-11-10 02:00:00 9.2 0 Calma 3 Sudeste 0 -- -- 94
2018-11-10 01:00:00 9.8 0 Calma 4 Sudeste 0 -- -- 94
2018-11-10 00:00:00 10.5 0 Calma 3 Oeste 0 -- -- 91
2018-11-09 23:00:00 11.3 0 Calma 8 Oeste 0 -- -- 92
2018-11-09 22:00:00 11.4 5 Oeste 8 Oeste 0 -- -- 89
2018-11-09 21:00:00 12.1 8 Oeste 9 Oeste 0 -- -- 87
2018-11-09 20:00:00 12.3 6 Oeste 9 Oeste 0 -- -- 84
2018-11-09 19:00:00 13.1 7 Oeste 14 Oeste 0 -- -- 80
2018-11-09 18:00:00 15.7 12 Oeste 23 Oeste 0 -- -- 70
2018-11-09 17:00:00 17.4 17 Sudoeste 27 Oeste 0 -- -- 63
2018-11-09 16:00:00 17.1 19 Oeste 27 Oeste 0 -- -- 65
2018-11-09 15:00:00 18.1 20 Sudoeste 29 Oeste 0 -- -- 58
2018-11-09 14:00:00 18.1 19 Sudoeste 26 Sudoeste 0 -- -- 59
2018-11-09 13:00:00 18 16 Sudoeste 22 Sudoeste 0 -- -- 62
2018-11-09 12:00:00 16.5 5 Noroeste 15 Noroeste 0 -- -- 60
2018-11-09 11:00:00 14.8 3 Noroeste 6 Noroeste 0 -- -- 78
2018-11-09 10:00:00 10.9 3 Nordeste 6 Nordeste 0 -- -- 98
2018-11-09 09:00:00 7.2 0 Calma 5 Noroeste 0 -- -- 97
2018-11-09 08:00:00 7.2 2 Noroeste 8 Norte 0 -- -- 95
2018-11-09 07:00:00 7.5 4 Noroeste 7 Norte 0 -- -- 96
2018-11-09 06:00:00 7.9 4 Noroeste 10 Noroeste 0 -- -- 94
2018-11-09 05:00:00 7.8 5 Noroeste 10 Noroeste 0 -- -- 93
2018-11-09 04:00:00 9.4 5 Noroeste 11 Oeste 0 -- -- 91
2018-11-09 03:00:00 10.2 7 Noroeste 14 Oeste 0 -- -- 90
2018-11-09 02:00:00 9.9 9 Noroeste 14 Noroeste 0 -- -- 93
2018-11-09 01:00:00 9.7 6 Oeste 10 Oeste 0 -- -- 91
2018-11-09 00:00:00 11.3 8 Oeste 14 Noroeste 0 -- -- 85